Time;durP1;ratioP1;P1;durP2;ratioP2;P2;SDS_P1;SDS_P2;PMS_P1;PMS_P2;Temp;Humidity;BMP_temperature;BMP_pressure;BME280_temperature;BME280_humidity;BME280_pressure;Samples;Min_cycle;Max_cycle;Signal;HPM_P1;HPM_P2
2021/11/05 00:01:48;;;;;;;24.53;14.27;;;8.70;99.90;;;;;;5021015;28;20474;-72
2021/11/05 00:04:15;;;;;;;28.13;16.27;;;8.50;99.90;;;;;;5010211;28;20476;-72
2021/11/05 00:06:42;;;;;;;24.73;13.77;;;8.60;99.90;;;;;;5010298;28;20461;-73
2021/11/05 00:09:09;;;;;;;27.63;14.07;;;8.50;99.90;;;;;;5021233;28;21614;-72
2021/11/05 00:11:38;;;;;;;22.60;12.60;;;8.50;99.90;;;;;;5017389;28;20564;-72
2021/11/05 00:14:05;;;;;;;28.33;16.63;;;8.60;99.90;;;;;;5019179;28;20459;-74
2021/11/05 00:16:32;;;;;;;25.83;14.10;;;8.70;99.90;;;;;;5018374;28;20431;-73
2021/11/05 00:18:59;;;;;;;32.70;15.00;;;8.50;99.90;;;;;;5018117;28;20495;-75
2021/11/05 00:21:26;;;;;;;39.13;17.93;;;8.50;99.90;;;;;;5018363;28;20451;-73
2021/11/05 00:23:53;;;;;;;26.27;13.90;;;8.50;99.90;;;;;;5041989;22;20522;-71
2021/11/05 00:26:20;;;;;;;30.00;16.00;;;8.40;99.90;;;;;;5031947;28;20492;-71
2021/11/05 00:28:48;;;;;;;26.40;13.30;;;8.40;99.90;;;;;;5029944;28;20979;-71
2021/11/05 00:31:15;;;;;;;29.40;15.73;;;8.40;99.90;;;;;;5030204;28;20513;-70
2021/11/05 00:33:42;;;;;;;21.50;12.87;;;8.30;99.90;;;;;;5023672;28;20654;-70
2021/11/05 00:36:13;;;;;;;28.10;14.33;;;8.40;99.90;;;;;;5035398;28;20448;-70
2021/11/05 00:38:41;;;;;;;45.57;15.80;;;8.40;99.90;;;;;;5025949;28;20471;-72
2021/11/05 00:41:08;;;;;;;36.67;16.37;;;8.40;99.90;;;;;;5029665;28;20456;-70
2021/11/05 00:43:35;;;;;;;31.93;13.83;;;8.40;99.90;;;;;;5034955;28;20521;-70
2021/11/05 00:46:04;;;;;;;35.57;16.20;;;8.50;99.90;;;;;;5034302;28;20579;-70
2021/11/05 00:48:31;;;;;;;35.50;15.40;;;8.50;99.90;;;;;;5038332;28;20455;-71
2021/11/05 00:50:58;;;;;;;39.77;19.50;;;8.60;99.90;;;;;;5029340;28;20554;-70
2021/11/05 00:53:25;;;;;;;26.03;10.87;;;8.60;99.90;;;;;;5032662;28;20478;-70
2021/11/05 00:55:52;;;;;;;25.93;12.67;;;8.60;99.90;;;;;;5033431;28;20520;-71
2021/11/05 00:58:20;;;;;;;28.47;14.57;;;8.50;99.90;;;;;;5030457;28;20988;-70
2021/11/05 01:00:47;;;;;;;32.47;16.87;;;8.40;99.90;;;;;;5020376;28;20492;-71
2021/11/05 01:03:15;;;;;;;43.60;13.10;;;8.50;99.90;;;;;;4993671;28;20474;-70
2021/11/05 01:05:42;;;;;;;27.97;13.57;;;8.60;99.90;;;;;;4974360;28;22003;-70
2021/11/05 01:08:10;;;;;;;25.20;13.03;;;8.60;99.90;;;;;;5010252;28;21045;-71
2021/11/05 01:10:37;;;;;;;27.80;14.00;;;8.60;99.90;;;;;;5026458;28;21087;-70
2021/11/05 01:13:04;;;;;;;27.40;13.27;;;8.70;99.90;;;;;;5040602;28;20446;-71
2021/11/05 01:15:32;;;;;;;24.50;13.63;;;8.70;99.90;;;;;;5038057;28;20440;-70
2021/11/05 01:17:59;;;;;;;25.17;13.23;;;8.70;99.90;;;;;;5035219;28;20447;-70
2021/11/05 01:20:27;;;;;;;25.10;12.17;;;8.70;99.90;;;;;;5039350;28;20996;-70
2021/11/05 01:22:54;;;;;;;21.90;11.50;;;8.60;99.90;;;;;;5037587;28;20511;-70
2021/11/05 01:25:21;;;;;;;24.53;13.77;;;8.40;99.90;;;;;;5034789;28;20466;-71
2021/11/05 01:27:49;;;;;;;22.27;10.47;;;8.40;99.90;;;;;;5034720;28;20549;-70
2021/11/05 01:30:17;;;;;;;28.07;11.73;;;8.40;99.90;;;;;;5036939;28;20456;-70
2021/11/05 01:32:46;;;;;;;26.87;12.13;;;8.40;99.90;;;;;;5036930;28;20570;-71
2021/11/05 01:35:14;;;;;;;25.40;14.27;;;8.40;99.90;;;;;;5033696;28;20429;-71
2021/11/05 01:37:43;;;;;;;39.57;14.20;;;8.40;99.90;;;;;;5031664;28;20491;-70
2021/11/05 01:40:11;;;;;;;32.60;12.27;;;8.40;99.90;;;;;;5029107;28;20470;-70
2021/11/05 01:42:39;;;;;;;42.10;13.50;;;8.40;99.90;;;;;;5045548;28;20495;-70
2021/11/05 01:45:08;;;;;;;33.60;14.83;;;8.40;99.90;;;;;;5040360;28;20491;-70
2021/11/05 01:47:37;;;;;;;31.67;13.80;;;8.50;99.90;;;;;;5032196;28;20952;-70
2021/11/05 01:50:05;;;;;;;33.97;14.03;;;8.40;99.90;;;;;;5030905;28;20457;-71
2021/11/05 01:52:32;;;;;;;28.00;14.30;;;8.40;99.90;;;;;;5026326;28;20533;-70
2021/11/05 01:55:01;;;;;;;22.17;11.83;;;8.50;99.90;;;;;;5030207;28;20464;-71
2021/11/05 01:57:28;;;;;;;34.57;15.20;;;8.50;99.90;;;;;;5037123;28;20456;-71
2021/11/05 01:59:55;;;;;;;27.97;11.37;;;8.60;99.90;;;;;;5035663;28;20483;-71
2021/11/05 02:02:22;;;;;;;32.47;15.80;;;8.60;99.90;;;;;;5033595;28;20514;-71
2021/11/05 02:04:49;;;;;;;29.40;14.67;;;8.60;99.90;;;;;;5038815;28;20560;-71
2021/11/05 02:07:16;;;;;;;27.00;12.37;;;8.50;99.90;;;;;;5036254;28;20484;-71
2021/11/05 02:09:45;;;;;;;35.33;11.23;;;8.40;99.90;;;;;;5030473;28;20543;-70
2021/11/05 02:12:14;;;;;;;34.53;10.13;;;8.40;99.90;;;;;;5037844;28;20456;-70
2021/11/05 02:14:44;;;;;;;26.77;12.50;;;8.40;99.90;;;;;;5045966;28;20526;-70
2021/11/05 02:17:11;;;;;;;24.73;11.77;;;8.30;99.90;;;;;;5032230;28;20453;-70
2021/11/05 02:19:38;;;;;;;22.20;10.63;;;8.40;99.90;;;;;;5035891;28;20426;-71
2021/11/05 02:22:07;;;;;;;28.93;11.97;;;8.40;99.90;;;;;;5028919;28;20522;-70
2021/11/05 02:24:34;;;;;;;25.67;10.63;;;8.40;99.90;;;;;;5033695;28;20475;-71
2021/11/05 02:27:02;;;;;;;24.10;12.57;;;8.40;99.90;;;;;;5038298;28;20788;-70
2021/11/05 02:29:32;;;;;;;31.70;13.20;;;8.40;99.90;;;;;;5024662;28;20460;-70
2021/11/05 02:31:59;;;;;;;22.17;11.67;;;8.50;99.90;;;;;;5033203;28;20894;-70
2021/11/05 02:34:26;;;;;;;36.23;13.80;;;8.60;99.90;;;;;;5029002;28;20567;-71
2021/11/05 02:36:54;;;;;;;16.73;10.23;;;8.50;99.90;;;;;;5035769;28;20455;-70
2021/11/05 02:39:23;;;;;;;35.57;16.63;;;8.60;99.90;;;;;;5033320;28;20559;-71
2021/11/05 02:41:51;;;;;;;30.33;14.83;;;8.60;99.90;;;;;;5031643;28;20539;-71
2021/11/05 02:44:18;;;;;;;25.37;12.67;;;8.70;99.90;;;;;;5034326;28;20493;-71
2021/11/05 02:46:45;;;;;;;30.30;13.73;;;8.50;99.90;;;;;;5038116;28;20507;-71
2021/11/05 02:49:15;;;;;;;32.03;13.40;;;8.60;99.90;;;;;;5036992;28;20959;-70
2021/11/05 02:51:43;;;;;;;31.10;13.20;;;8.60;99.90;;;;;;5032162;28;20464;-71
2021/11/05 02:54:10;;;;;;;30.83;12.83;;;8.70;99.90;;;;;;5034323;28;20614;-70
2021/11/05 02:56:39;;;;;;;28.00;14.30;;;8.60;99.90;;;;;;5036559;28;20463;-70
2021/11/05 02:59:07;;;;;;;27.00;11.40;;;8.60;99.90;;;;;;5029479;28;20447;-71
2021/11/05 03:01:35;;;;;;;29.77;12.27;;;8.40;99.90;;;;;;5027789;28;20803;-71
2021/11/05 03:04:03;;;;;;;24.23;9.60;;;8.50;99.90;;;;;;5041006;28;20517;-71
2021/11/05 03:06:35;;;;;;;36.20;14.20;;;8.60;99.90;;;;;;5039460;28;20544;-70
2021/11/05 03:09:08;;;;;;;28.43;12.00;;;8.60;99.90;;;;;;5031166;28;20570;-71
2021/11/05 03:11:35;;;;;;;28.80;14.40;;;8.60;99.90;;;;;;5031560;28;20495;-71
2021/11/05 03:14:04;;;;;;;31.27;11.93;;;8.60;99.90;;;;;;5033539;28;20546;-70
2021/11/05 03:16:31;;;;;;;23.10;9.50;;;8.60;99.90;;;;;;5033291;28;20472;-70
2021/11/05 03:18:58;;;;;;;31.43;12.63;;;8.60;99.90;;;;;;5038385;28;20502;-70
2021/11/05 03:21:25;;;;;;;24.47;11.80;;;8.60;99.90;;;;;;5035410;28;20464;-71
2021/11/05 03:23:52;;;;;;;26.40;13.10;;;8.60;99.90;;;;;;5031581;28;20925;-70
2021/11/05 03:26:19;;;;;;;22.67;11.43;;;8.60;99.90;;;;;;5026662;28;20492;-70
2021/11/05 03:28:46;;;;;;;26.50;13.20;;;8.50;99.90;;;;;;5024275;28;20460;-71
2021/11/05 03:31:14;;;;;;;30.43;11.77;;;8.50;99.90;;;;;;5031578;28;21086;-71
2021/11/05 03:33:41;;;;;;;30.50;11.70;;;8.50;99.90;;;;;;5029016;28;20478;-70
2021/11/05 03:36:08;;;;;;;26.23;11.77;;;8.60;99.90;;;;;;5038465;28;20545;-70
2021/11/05 03:38:36;;;;;;;29.70;13.43;;;8.60;99.90;;;;;;5027517;28;20540;-70
2021/11/05 03:41:03;;;;;;;26.83;11.67;;;8.80;99.90;;;;;;5027344;28;20496;-70
2021/11/05 03:43:30;;;;;;;31.27;14.27;;;8.70;99.90;;;;;;5026113;28;20483;-70
2021/11/05 03:45:57;;;;;;;28.87;10.40;;;8.90;99.90;;;;;;5034410;28;20568;-71
2021/11/05 03:48:25;;;;;;;29.77;12.67;;;8.90;99.90;;;;;;5033242;28;21174;-71
2021/11/05 03:50:52;;;;;;;29.63;15.13;;;8.80;99.90;;;;;;5036377;28;20464;-70
2021/11/05 03:53:19;;;;;;;24.70;12.27;;;8.80;99.90;;;;;;5044312;28;20486;-71
2021/11/05 03:55:46;;;;;;;23.93;10.67;;;8.80;99.90;;;;;;5032359;28;20451;-71
2021/11/05 03:58:13;;;;;;;28.23;12.73;;;8.80;99.90;;;;;;5028117;28;20495;-70
2021/11/05 04:00:40;;;;;;;24.27;12.10;;;8.80;99.90;;;;;;5024709;28;20484;-71
2021/11/05 04:03:07;;;;;;;31.20;11.87;;;8.50;99.90;;;;;;5031360;28;20557;-71
2021/11/05 04:05:35;;;;;;;21.60;10.80;;;8.30;99.90;;;;;;5031028;28;20503;-71
2021/11/05 04:08:02;;;;;;;26.63;12.87;;;8.30;99.90;;;;;;5035577;28;20517;-71
2021/11/05 04:10:29;;;;;;;24.23;11.87;;;8.30;99.90;;;;;;5026431;28;20469;-71
2021/11/05 04:12:57;;;;;;;44.13;10.83;;;8.30;99.90;;;;;;5037378;28;20499;-71
2021/11/05 04:15:25;;;;;;;42.10;14.43;;;8.40;99.90;;;;;;5030160;28;20847;-70
2021/11/05 04:17:52;;;;;;;26.00;10.57;;;8.40;99.90;;;;;;5025483;28;20464;-70
2021/11/05 04:20:19;;;;;;;32.37;14.37;;;8.50;99.90;;;;;;5026142;28;20448;-71
2021/11/05 04:22:47;;;;;;;34.90;12.47;;;8.50;99.90;;;;;;5032171;28;20980;-71
2021/11/05 04:25:14;;;;;;;34.67;11.87;;;8.50;99.90;;;;;;5038757;28;20486;-70
2021/11/05 04:27:42;;;;;;;23.33;11.67;;;8.60;99.90;;;;;;5035912;28;20470;-71
2021/11/05 04:30:12;;;;;;;26.93;11.17;;;8.50;99.90;;;;;;5033502;28;20483;-70
2021/11/05 04:32:39;;;;;;;28.10;11.40;;;8.40;99.90;;;;;;5032684;28;20532;-70
2021/11/05 04:35:06;;;;;;;34.83;11.17;;;8.50;99.90;;;;;;5029438;28;20528;-70
2021/11/05 04:37:33;;;;;;;25.90;13.60;;;8.50;99.90;;;;;;5022425;28;20535;-69
2021/11/05 04:40:01;;;;;;;34.77;11.93;;;8.50;99.90;;;;;;5020155;28;20466;-70
2021/11/05 04:42:28;;;;;;;32.90;14.63;;;8.40;99.90;;;;;;5033357;28;20473;-70
2021/11/05 04:44:55;;;;;;;29.77;10.77;;;8.40;99.90;;;;;;5030723;28;20455;-69
2021/11/05 04:47:22;;;;;;;32.27;11.97;;;8.50;99.90;;;;;;5036967;28;20479;-70
2021/11/05 04:49:49;;;;;;;33.13;13.50;;;8.50;99.90;;;;;;5038128;28;20560;-70
2021/11/05 04:52:16;;;;;;;23.00;10.70;;;8.50;99.90;;;;;;5024143;28;20546;-70
2021/11/05 04:54:43;;;;;;;25.17;10.33;;;8.50;99.90;;;;;;5043643;28;20471;-69
2021/11/05 04:57:11;;;;;;;23.60;12.03;;;8.60;99.90;;;;;;5037877;28;21245;-70
2021/11/05 04:59:38;;;;;;;26.80;10.80;;;8.60;99.90;;;;;;5032038;28;20487;-71
2021/11/05 05:02:06;;;;;;;34.67;12.20;;;8.70;99.90;;;;;;5027845;28;20465;-70
2021/11/05 05:04:33;;;;;;;41.23;14.70;;;8.60;99.90;;;;;;5038401;28;20512;-71
2021/11/05 05:07:00;;;;;;;27.57;11.00;;;8.60;99.90;;;;;;5028331;28;20714;-70
2021/11/05 05:09:27;;;;;;;25.93;10.37;;;8.70;99.90;;;;;;5033287;28;20468;-70
2021/11/05 05:11:55;;;;;;;37.17;12.30;;;8.70;99.90;;;;;;5033273;28;20904;-70
2021/11/05 05:14:23;;;;;;;27.00;11.37;;;8.70;99.90;;;;;;5037297;28;20467;-71
2021/11/05 05:16:50;;;;;;;28.27;11.27;;;8.70;99.90;;;;;;5038481;28;20575;-70
2021/11/05 05:19:17;;;;;;;30.00;11.93;;;8.60;99.90;;;;;;5037011;28;20475;-71
2021/11/05 05:21:44;;;;;;;25.90;11.47;;;8.70;99.90;;;;;;5041282;28;20879;-70
2021/11/05 05:24:11;;;;;;;29.50;15.50;;;8.60;99.90;;;;;;5041960;28;20554;-70
2021/11/05 05:26:38;;;;;;;25.33;12.43;;;8.70;99.90;;;;;;5040471;28;20581;-70
2021/11/05 05:29:05;;;;;;;24.53;11.27;;;8.70;99.90;;;;;;5030178;28;20503;-70
2021/11/05 05:31:34;;;;;;;32.03;12.93;;;8.70;99.90;;;;;;5025466;28;20451;-70
2021/11/05 05:34:01;;;;;;;9.97;6.17;;;8.70;99.90;;;;;;5026173;28;20570;-71
2021/11/05 05:36:28;;;;;;;32.80;11.87;;;8.60;99.90;;;;;;5026205;28;20555;-70
2021/11/05 05:38:55;;;;;;;28.17;9.60;;;8.60;99.90;;;;;;5033997;28;20456;-71
2021/11/05 05:41:23;;;;;;;22.83;9.17;;;8.60;99.90;;;;;;5033123;28;20490;-71
2021/11/05 05:43:49;;;;;;;29.70;12.07;;;8.60;99.90;;;;;;5034085;28;20918;-70
2021/11/05 05:46:17;;;;;;;25.13;12.47;;;8.70;99.90;;;;;;5037445;28;21092;-71
2021/11/05 05:48:45;;;;;;;23.60;11.47;;;8.70;99.90;;;;;;5034993;28;20506;-71
2021/11/05 05:51:12;;;;;;;21.50;12.63;;;8.70;99.90;;;;;;5030645;28;21101;-70
2021/11/05 05:53:39;;;;;;;24.00;11.33;;;8.70;99.90;;;;;;5034258;28;20576;-71
2021/11/05 05:56:06;;;;;;;23.10;11.43;;;8.70;99.90;;;;;;5029131;28;20539;-71
2021/11/05 05:58:33;;;;;;;29.57;12.10;;;8.60;99.90;;;;;;5036243;28;20448;-70
2021/11/05 06:01:01;;;;;;;24.00;9.20;;;8.60;99.90;;;;;;5034476;28;20458;-70
2021/11/05 06:03:28;;;;;;;24.03;10.73;;;8.60;99.90;;;;;;5038214;28;20464;-71
2021/11/05 06:05:56;;;;;;;21.03;7.87;;;8.60;99.90;;;;;;5038960;28;20508;-71
2021/11/05 06:08:23;;;;;;;26.73;11.67;;;8.60;99.90;;;;;;5043621;28;20510;-70
2021/11/05 06:10:51;;;;;;;21.60;11.37;;;8.70;99.90;;;;;;5040061;28;20466;-70
2021/11/05 06:13:18;;;;;;;23.57;11.37;;;8.70;99.90;;;;;;5039630;28;20977;-70
2021/11/05 06:15:44;;;;;;;19.30;9.60;;;8.70;99.90;;;;;;5044056;28;20518;-71
2021/11/05 06:18:11;;;;;;;27.00;10.83;;;8.70;99.90;;;;;;5037440;28;20489;-70
2021/11/05 06:20:39;;;;;;;31.57;11.40;;;8.80;99.90;;;;;;5038996;28;20558;-71
2021/11/05 06:23:07;;;;;;;26.87;12.40;;;8.80;99.90;;;;;;5036317;28;20487;-69
2021/11/05 06:25:34;;;;;;;28.83;10.77;;;8.70;99.90;;;;;;5043230;28;20495;-70
2021/11/05 06:28:01;;;;;;;20.33;7.50;;;8.70;99.90;;;;;;5041503;28;20533;-70
2021/11/05 06:30:28;;;;;;;18.47;9.33;;;8.70;99.90;;;;;;5039110;28;20999;-70
2021/11/05 06:32:56;;;;;;;31.63;13.87;;;8.70;99.90;;;;;;5046465;28;20528;-71
2021/11/05 06:35:23;;;;;;;17.80;9.10;;;8.70;99.90;;;;;;5037597;28;20490;-70
2021/11/05 06:37:50;;;;;;;33.90;12.57;;;8.60;99.90;;;;;;5035715;28;20486;-69
2021/11/05 06:40:19;;;;;;;45.33;11.50;;;8.70;99.90;;;;;;5039205;28;20893;-71
2021/11/05 06:42:46;;;;;;;24.60;10.20;;;8.60;99.90;;;;;;5038147;28;20550;-70
2021/11/05 06:45:13;;;;;;;29.80;11.50;;;8.50;99.90;;;;;;5041836;28;20849;-71
2021/11/05 06:47:41;;;;;;;18.20;11.07;;;8.40;99.90;;;;;;5036349;28;20491;-70
2021/11/05 06:50:10;;;;;;;26.43;11.17;;;8.50;99.90;;;;;;5037306;28;20495;-70
2021/11/05 06:52:37;;;;;;;24.73;10.40;;;8.60;99.90;;;;;;5040182;28;20464;-70
2021/11/05 06:55:06;;;;;;;22.60;9.77;;;8.60;99.90;;;;;;5038321;28;20444;-70
2021/11/05 06:57:35;;;;;;;27.60;11.40;;;8.50;99.90;;;;;;5041611;28;20415;-70
2021/11/05 07:00:02;;;;;;;26.40;11.90;;;8.50;99.90;;;;;;5036908;28;20467;-71
2021/11/05 07:02:29;;;;;;;24.50;9.87;;;8.70;99.90;;;;;;5044297;28;21082;-70
2021/11/05 07:04:56;;;;;;;32.13;9.00;;;8.60;99.90;;;;;;5042695;28;20501;-71
2021/11/05 07:07:22;;;;;;;23.20;11.20;;;8.50;99.90;;;;;;5045567;28;21049;-70
2021/11/05 07:09:50;;;;;;;19.70;8.40;;;8.50;99.90;;;;;;5032240;28;20456;-70
2021/11/05 07:12:17;;;;;;;26.17;9.60;;;8.60;99.90;;;;;;5040389;28;20460;-70
2021/11/05 07:14:45;;;;;;;27.10;10.70;;;8.60;99.90;;;;;;5038692;28;20486;-71
2021/11/05 07:17:12;;;;;;;20.27;9.60;;;8.60;99.90;;;;;;5037555;28;20436;-70
2021/11/05 07:19:39;;;;;;;14.37;7.90;;;8.60;99.90;;;;;;5040165;28;20584;-70
2021/11/05 07:22:06;;;;;;;19.60;9.20;;;8.60;99.90;;;;;;5042833;28;20489;-70
2021/11/05 07:24:37;;;;;;;24.97;7.70;;;8.50;99.90;;;;;;5042522;28;20475;-71
2021/11/05 07:27:05;;;;;;;30.57;11.27;;;8.40;99.90;;;;;;5041860;28;20578;-70
2021/11/05 07:29:32;;;;;;;33.53;10.23;;;8.40;99.90;;;;;;5033740;28;20465;-70
2021/11/05 07:32:04;;;;;;;21.90;11.47;;;8.60;99.90;;;;;;5045841;28;20599;-71
2021/11/05 07:34:32;;;;;;;39.50;11.17;;;8.80;99.90;;;;;;5047095;28;20468;-71
2021/11/05 07:36:59;;;;;;;21.20;10.33;;;8.90;99.90;;;;;;5048604;28;20828;-69
2021/11/05 07:39:27;;;;;;;29.80;12.63;;;8.90;99.90;;;;;;5041146;28;20484;-69
2021/11/05 07:41:54;;;;;;;39.20;12.33;;;8.90;99.90;;;;;;5049801;28;20948;-71
2021/11/05 07:44:21;;;;;;;32.47;15.00;;;8.80;99.90;;;;;;5045002;28;20503;-71
2021/11/05 07:46:48;;;;;;;42.00;15.00;;;8.80;99.90;;;;;;5045162;28;20539;-69
2021/11/05 07:49:17;;;;;;;32.47;14.83;;;8.70;99.90;;;;;;5045793;28;20490;-71
2021/11/05 07:51:44;;;;;;;25.33;12.50;;;8.80;99.90;;;;;;5043145;28;20536;-71
2021/11/05 07:54:11;;;;;;;36.97;12.77;;;8.80;99.90;;;;;;5044504;28;20553;-71
2021/11/05 07:56:39;;;;;;;45.97;15.20;;;8.70;99.90;;;;;;5048482;28;20497;-71
2021/11/05 07:59:07;;;;;;;32.47;12.20;;;8.80;99.90;;;;;;5043967;28;20494;-71
2021/11/05 08:01:34;;;;;;;31.80;14.70;;;8.90;99.90;;;;;;5038693;28;20589;-71
2021/11/05 08:04:01;;;;;;;22.50;10.03;;;9.00;99.90;;;;;;5046304;28;20499;-70
2021/11/05 08:06:29;;;;;;;23.63;11.67;;;9.10;99.90;;;;;;5037836;28;20591;-71
2021/11/05 08:08:56;;;;;;;31.33;12.20;;;9.00;99.90;;;;;;5047649;28;20525;-70
2021/11/05 08:11:29;;;;;;;31.93;11.27;;;8.90;99.90;;;;;;5040313;28;20541;-70
2021/11/05 08:13:57;;;;;;;26.77;10.00;;;9.00;99.90;;;;;;5042810;28;21698;-70
2021/11/05 08:16:25;;;;;;;46.80;12.20;;;9.10;99.90;;;;;;5047774;28;20510;-70
2021/11/05 08:18:52;;;;;;;26.27;10.30;;;9.00;99.90;;;;;;5041695;28;20479;-71
2021/11/05 08:21:19;;;;;;;26.93;8.40;;;9.00;99.90;;;;;;5050658;28;20586;-71
2021/11/05 08:23:48;;;;;;;38.80;12.50;;;8.80;99.90;;;;;;5050494;28;20441;-70
2021/11/05 08:26:15;;;;;;;41.83;15.00;;;8.90;99.90;;;;;;5051071;28;20845;-71
2021/11/05 08:28:42;;;;;;;21.77;12.77;;;9.00;99.90;;;;;;5047560;28;20537;-71
2021/11/05 08:31:11;;;;;;;26.10;10.33;;;8.90;99.90;;;;;;5040689;28;20985;-71
2021/11/05 08:33:40;;;;;;;30.77;14.23;;;8.90;99.90;;;;;;5036482;28;20504;-71
2021/11/05 08:36:09;;;;;;;33.50;12.43;;;9.00;99.90;;;;;;5038328;28;20466;-72
2021/11/05 08:38:36;;;;;;;29.67;12.57;;;9.00;99.90;;;;;;5050236;28;20447;-71
2021/11/05 08:41:04;;;;;;;9.33;5.80;;;9.00;99.90;;;;;;5046352;28;20525;-71
2021/11/05 08:43:33;;;;;;;25.77;11.53;;;9.00;99.90;;;;;;5043043;28;20499;-71
2021/11/05 08:46:01;;;;;;;24.90;12.57;;;8.90;99.90;;;;;;5042461;28;20445;-71
2021/11/05 08:48:29;;;;;;;35.20;12.50;;;9.00;99.90;;;;;;5041349;28;20479;-71
2021/11/05 08:50:57;;;;;;;32.07;10.90;;;9.00;99.90;;;;;;5043286;28;20467;-71
2021/11/05 08:53:24;;;;;;;21.17;12.97;;;8.90;99.90;;;;;;5046439;28;20459;-71
2021/11/05 08:55:51;;;;;;;26.73;10.70;;;9.00;99.90;;;;;;5045259;28;20509;-72
2021/11/05 08:58:19;;;;;;;30.03;10.97;;;9.10;99.90;;;;;;5043720;28;20440;-72
2021/11/05 09:00:46;;;;;;;19.37;8.17;;;9.10;99.90;;;;;;5042431;28;20463;-71
2021/11/05 09:03:13;;;;;;;31.20;11.90;;;9.20;99.90;;;;;;5046317;28;20949;-71
2021/11/05 09:05:40;;;;;;;31.73;11.00;;;9.20;99.90;;;;;;5044163;28;20511;-72
2021/11/05 09:08:08;;;;;;;21.80;11.20;;;9.20;99.90;;;;;;5046865;28;21065;-70
2021/11/05 09:10:36;;;;;;;31.13;11.30;;;9.30;99.90;;;;;;5038203;28;20452;-71
2021/11/05 09:13:04;;;;;;;42.13;15.93;;;9.40;99.90;;;;;;5047069;28;20491;-70
2021/11/05 09:15:33;;;;;;;30.57;11.50;;;9.50;99.90;;;;;;5043081;28;20497;-71
2021/11/05 09:18:02;;;;;;;35.23;11.53;;;9.80;99.90;;;;;;5044363;28;20807;-71
2021/11/05 09:20:30;;;;;;;29.97;12.67;;;9.70;99.90;;;;;;5044642;28;20460;-71
2021/11/05 09:22:58;;;;;;;27.60;11.57;;;9.60;99.90;;;;;;5036191;28;20468;-71
2021/11/05 09:25:25;;;;;;;38.43;13.27;;;9.60;99.90;;;;;;5040161;28;20638;-71
2021/11/05 09:27:52;;;;;;;27.03;10.60;;;9.50;99.90;;;;;;5038192;28;20483;-71
2021/11/05 09:30:23;;;;;;;25.13;10.93;;;9.50;99.90;;;;;;5045035;28;20514;-71
2021/11/05 09:32:52;;;;;;;24.73;10.53;;;9.60;99.90;;;;;;5057081;28;20500;-71
2021/11/05 09:35:20;;;;;;;13.40;6.83;;;9.80;99.90;;;;;;5045720;28;20951;-70
2021/11/05 09:37:49;;;;;;;32.03;14.20;;;9.80;99.90;;;;;;5044364;28;20440;-70
2021/11/05 09:40:18;;;;;;;22.60;11.63;;;9.90;99.90;;;;;;5044272;28;20873;-69
2021/11/05 09:42:48;;;;;;;35.30;12.83;;;10.10;99.90;;;;;;5039318;28;20502;-71
2021/11/05 09:45:17;;;;;;;33.87;12.43;;;10.00;99.90;;;;;;5045376;28;20445;-70
2021/11/05 09:47:45;;;;;;;27.87;12.03;;;9.80;99.90;;;;;;5048367;28;20514;-71
2021/11/05 09:50:15;;;;;;;35.07;11.27;;;9.90;99.90;;;;;;5041348;28;20461;-69
2021/11/05 09:52:45;;;;;;;31.77;11.83;;;10.00;99.90;;;;;;5043448;28;20507;-70
2021/11/05 09:55:12;;;;;;;33.70;13.33;;;10.20;99.90;;;;;;5044332;28;20788;-70
2021/11/05 09:57:39;;;;;;;42.33;13.60;;;10.70;99.90;;;;;;5049688;28;20491;-70
2021/11/05 10:00:08;;;;;;;28.83;14.57;;;11.00;99.90;;;;;;5039517;28;21238;-70
2021/11/05 10:02:35;;;;;;;23.17;10.97;;;11.00;99.90;;;;;;5043275;28;20445;-71
2021/11/05 10:05:04;;;;;;;25.63;10.43;;;10.90;99.90;;;;;;5047942;28;20449;-70
2021/11/05 10:07:35;;;;;;;18.07;9.33;;;10.70;99.90;;;;;;5035724;28;21022;-70
2021/11/05 10:10:05;;;;;;;29.23;10.17;;;10.60;99.90;;;;;;5040294;28;20468;-71
2021/11/05 10:12:31;;;;;;;23.73;11.53;;;10.40;99.90;;;;;;5038849;28;20456;-71
2021/11/05 10:15:01;;;;;;;24.83;12.07;;;10.60;99.90;;;;;;5041161;28;21001;-71
2021/11/05 10:17:29;;;;;;;33.63;15.60;;;10.50;99.90;;;;;;5039484;28;20473;-71
2021/11/05 10:19:59;;;;;;;19.80;10.93;;;10.40;99.90;;;;;;5045024;28;20551;-70
2021/11/05 10:22:47;;;;;;;21.00;10.87;;;10.30;99.90;;;;;;5045453;28;20466;-71
2021/11/05 10:25:25;;;;;;;29.80;11.83;;;10.20;99.90;;;;;;5045701;28;20605;-71
2021/11/05 10:28:14;;;;;;;30.23;12.87;;;10.10;99.90;;;;;;5040848;28;20497;-71
2021/11/05 10:30:56;;;;;;;25.83;12.30;;;10.30;99.90;;;;;;5031593;28;21003;-71
2021/11/05 10:33:28;;;;;;;32.67;14.47;;;10.50;99.90;;;;;;5042008;28;20490;-71
2021/11/05 10:35:57;;;;;;;27.50;10.73;;;10.60;99.90;;;;;;5045568;28;20447;-71
2021/11/05 10:38:25;;;;;;;13.97;8.13;;;10.80;99.90;;;;;;5043492;28;20509;-71
2021/11/05 10:40:54;;;;;;;29.30;11.63;;;11.00;99.90;;;;;;5040830;28;20460;-70
2021/11/05 10:43:37;;;;;;;34.40;14.40;;;11.10;99.90;;;;;;5038471;28;20858;-71
2021/11/05 10:46:05;;;;;;;34.70;12.20;;;11.10;99.90;;;;;;5046690;28;20451;-71
2021/11/05 10:48:37;;;;;;;35.80;12.30;;;11.20;99.90;;;;;;5043887;28;20487;-71
2021/11/05 10:51:06;;;;;;;29.27;11.13;;;11.30;99.90;;;;;;5043706;28;20483;-71
2021/11/05 10:53:36;;;;;;;30.63;12.53;;;11.00;99.90;;;;;;5046887;28;20459;-71
2021/11/05 10:56:06;;;;;;;31.60;13.40;;;10.90;99.90;;;;;;5042874;28;20483;-71
2021/11/05 10:58:35;;;;;;;28.83;11.87;;;11.10;99.90;;;;;;5042331;28;20972;-71
2021/11/05 11:01:04;;;;;;;19.93;10.23;;;11.30;99.90;;;;;;5040657;28;20498;-71
2021/11/05 11:03:33;;;;;;;25.70;10.80;;;11.40;99.90;;;;;;5044606;28;20459;-70
2021/11/05 11:06:05;;;;;;;24.23;9.97;;;11.40;99.90;;;;;;5040143;28;20892;-71
2021/11/05 11:08:34;;;;;;;27.43;11.70;;;11.60;99.90;;;;;;5040868;28;20558;-71
2021/11/05 11:11:26;;;;;;;19.07;9.70;;;11.60;99.90;;;;;;5039066;28;20550;-71
2021/11/05 11:13:54;;;;;;;25.90;12.20;;;11.60;99.90;;;;;;5042344;28;20491;-72
2021/11/05 11:16:24;;;;;;;34.40;10.90;;;11.80;99.90;;;;;;5044957;28;20444;-72
2021/11/05 11:18:54;;;;;;;22.20;11.03;;;11.90;99.90;;;;;;5041134;28;20547;-71
2021/11/05 11:21:23;;;;;;;31.50;13.13;;;11.90;99.90;;;;;;5039280;28;20491;-72
2021/11/05 11:23:50;;;;;;;35.83;11.23;;;12.00;99.90;;;;;;5041304;28;20996;-71
2021/11/05 11:26:19;;;;;;;22.90;11.90;;;11.90;99.90;;;;;;5043024;28;20482;-72
2021/11/05 11:28:47;;;;;;;33.87;13.00;;;12.00;99.90;;;;;;5039260;28;20484;-72
2021/11/05 11:31:15;;;;;;;16.63;10.90;;;12.20;99.90;;;;;;5044395;28;20936;-68
2021/11/05 11:33:42;;;;;;;21.80;10.90;;;12.20;99.90;;;;;;5046680;28;20816;-72
2021/11/05 11:36:11;;;;;;;25.33;11.60;;;12.10;99.90;;;;;;5036614;28;20445;-72
2021/11/05 11:38:39;;;;;;;21.93;10.70;;;12.00;99.90;;;;;;5038749;28;20522;-72
2021/11/05 11:41:08;;;;;;;19.13;11.90;;;11.90;99.90;;;;;;5047364;28;20548;-72
2021/11/05 11:43:38;;;;;;;33.97;13.03;;;11.70;99.90;;;;;;5043397;28;20466;-72
2021/11/05 11:46:06;;;;;;;24.70;12.10;;;11.60;99.90;;;;;;5040373;28;20466;-70
2021/11/05 11:48:42;;;;;;;21.43;9.10;;;11.60;99.90;;;;;;5036669;28;20566;-71
2021/11/05 11:51:34;;;;;;;35.27;11.13;;;11.90;99.90;;;;;;5038382;28;20452;-70
2021/11/05 11:54:20;;;;;;;21.03;9.83;;;11.90;99.90;;;;;;5042563;28;20560;-70
2021/11/05 11:56:47;;;;;;;25.57;12.97;;;11.90;99.90;;;;;;5048474;28;20770;-70
2021/11/05 11:59:17;;;;;;;18.83;9.63;;;12.20;99.90;;;;;;5042755;28;20510;-70
2021/11/05 12:01:46;;;;;;;27.80;12.07;;;12.40;99.90;;;;;;5038679;28;20449;-70
2021/11/05 12:04:16;;;;;;;25.97;10.93;;;12.50;99.90;;;;;;5043585;28;21020;-70
2021/11/05 12:07:03;;;;;;;25.27;11.57;;;12.40;99.90;;;;;;5043568;28;20816;-70
2021/11/05 12:09:33;;;;;;;18.63;10.90;;;12.30;99.90;;;;;;5038444;28;20590;-70
2021/11/05 12:12:34;;;;;;;18.20;12.00;;;12.20;99.90;;;;;;5037724;28;20930;-69
2021/11/05 12:15:12;;;;;;;11.73;3.93;;;12.20;99.90;;;;;;5036363;28;20467;-70
2021/11/05 12:18:10;;;;;;;31.40;16.13;;;12.00;99.90;;;;;;5047599;28;20497;-70
2021/11/05 12:20:44;;;;;;;31.07;11.33;;;11.90;99.90;;;;;;5003104;28;20488;-70
2021/11/05 12:23:29;;;;;;;23.27;10.90;;;11.80;99.90;;;;;;5058818;28;20459;-71
2021/11/05 12:25:59;;;;;;;25.57;12.07;;;11.90;99.90;;;;;;5052992;28;20781;-70
2021/11/05 12:28:40;;;;;;;24.00;10.57;;;12.00;99.90;;;;;;5046307;28;20492;-71
2021/11/05 12:31:27;;;;;;;19.83;8.90;;;12.00;99.90;;;;;;5042565;28;20495;-70
2021/11/05 12:33:55;;;;;;;30.17;13.13;;;11.80;99.90;;;;;;5037902;28;20493;-70
2021/11/05 12:36:46;;;;;;;20.53;11.20;;;11.70;99.90;;;;;;5048436;28;20490;-71
2021/11/05 12:39:13;;;;;;;24.77;13.37;;;11.90;99.90;;;;;;5039944;28;20520;-71
2021/11/05 12:42:00;;;;;;;19.27;12.60;;;12.00;99.90;;;;;;5036464;28;20472;-71
2021/11/05 12:44:29;;;;;;;23.70;12.73;;;12.00;99.90;;;;;;5042229;28;20502;-71